sensor_id;sensor_type;location;lat;lon;timestamp;P1;durP1;ratioP1;P2;durP2;ratioP2
63112;SDS011;49206;48.020;21.378;2023-04-24T00:00:53;24.50;;;15.70;;
63112;SDS011;49206;48.020;21.378;2023-04-24T00:01:58;26.55;;;16.10;;
63112;SDS011;49206;48.020;21.378;2023-04-24T00:03:00;26.40;;;15.90;;
63112;SDS011;49206;48.020;21.378;2023-04-24T00:04:05;27.23;;;15.45;;
63112;SDS011;49206;48.020;21.378;2023-04-24T00:05:09;24.00;;;15.68;;
63112;SDS011;49206;48.020;21.378;2023-04-24T00:06:11;25.35;;;16.05;;
63112;SDS011;49206;48.020;21.378;2023-04-24T00:07:14;25.25;;;14.85;;
63112;SDS011;49206;48.020;21.378;2023-04-24T00:08:18;27.65;;;15.88;;
63112;SDS011;49206;48.020;21.378;2023-04-24T00:09:20;26.58;;;15.75;;
63112;SDS011;49206;48.020;21.378;2023-04-24T00:10:23;26.63;;;15.35;;
63112;SDS011;49206;48.020;21.378;2023-04-24T00:11:26;23.25;;;15.82;;
63112;SDS011;49206;48.020;21.378;2023-04-24T00:12:28;27.02;;;17.50;;
63112;SDS011;49206;48.020;21.378;2023-04-24T00:13:31;26.15;;;17.05;;
63112;SDS011;49206;48.020;21.378;2023-04-24T00:14:34;29.42;;;17.73;;
63112;SDS011;49206;48.020;21.378;2023-04-24T00:15:36;32.40;;;18.35;;
63112;SDS011;49206;48.020;21.378;2023-04-24T00:16:39;29.75;;;17.63;;
63112;SDS011;49206;48.020;21.378;2023-04-24T00:17:41;32.80;;;18.98;;
63112;SDS011;49206;48.020;21.378;2023-04-24T00:18:44;30.40;;;18.25;;
63112;SDS011;49206;48.020;21.378;2023-04-24T00:19:54;38.35;;;21.25;;
63112;SDS011;49206;48.020;21.378;2023-04-24T00:21:00;37.45;;;22.00;;
63112;SDS011;49206;48.020;21.378;2023-04-24T00:22:03;35.00;;;22.70;;
63112;SDS011;49206;48.020;21.378;2023-04-24T00:23:05;30.75;;;18.60;;
63112;SDS011;49206;48.020;21.378;2023-04-24T00:24:07;32.80;;;19.52;;
63112;SDS011;49206;48.020;21.378;2023-04-24T00:25:12;34.63;;;20.02;;
63112;SDS011;49206;48.020;21.378;2023-04-24T00:26:15;30.58;;;19.40;;
63112;SDS011;49206;48.020;21.378;2023-04-24T00:27:17;29.88;;;19.40;;
63112;SDS011;49206;48.020;21.378;2023-04-24T00:28:20;35.58;;;20.50;;
63112;SDS011;49206;48.020;21.378;2023-04-24T00:29:22;35.72;;;20.58;;
63112;SDS011;49206;48.020;21.378;2023-04-24T00:30:25;32.38;;;19.77;;
63112;SDS011;49206;48.020;21.378;2023-04-24T00:31:27;32.05;;;20.92;;
63112;SDS011;49206;48.020;21.378;2023-04-24T00:32:29;29.58;;;19.42;;
63112;SDS011;49206;48.020;21.378;2023-04-24T00:33:32;32.03;;;19.30;;
63112;SDS011;49206;48.020;21.378;2023-04-24T00:34:34;31.88;;;19.17;;
63112;SDS011;49206;48.020;21.378;2023-04-24T00:35:37;29.88;;;19.92;;
63112;SDS011;49206;48.020;21.378;2023-04-24T00:36:39;31.80;;;18.38;;
63112;SDS011;49206;48.020;21.378;2023-04-24T00:37:42;28.25;;;18.58;;
63112;SDS011;49206;48.020;21.378;2023-04-24T00:38:44;34.72;;;20.55;;
63112;SDS011;49206;48.020;21.378;2023-04-24T00:39:47;30.80;;;19.10;;
63112;SDS011;49206;48.020;21.378;2023-04-24T00:40:50;31.02;;;18.95;;
63112;SDS011;49206;48.020;21.378;2023-04-24T00:41:53;32.03;;;19.10;;
63112;SDS011;49206;48.020;21.378;2023-04-24T00:42:55;31.38;;;19.58;;
63112;SDS011;49206;48.020;21.378;2023-04-24T00:43:58;31.65;;;19.02;;
63112;SDS011;49206;48.020;21.378;2023-04-24T00:45:00;30.95;;;19.50;;
63112;SDS011;49206;48.020;21.378;2023-04-24T00:46:05;34.10;;;19.30;;
63112;SDS011;49206;48.020;21.378;2023-04-24T00:47:08;29.45;;;18.15;;
63112;SDS011;49206;48.020;21.378;2023-04-24T00:48:10;30.67;;;16.73;;
63112;SDS011;49206;48.020;21.378;2023-04-24T00:49:14;27.00;;;16.88;;
63112;SDS011;49206;48.020;21.378;2023-04-24T00:50:16;29.10;;;16.23;;
63112;SDS011;49206;48.020;21.378;2023-04-24T00:51:21;28.88;;;16.83;;
63112;SDS011;49206;48.020;21.378;2023-04-24T00:52:23;21.25;;;15.02;;
63112;SDS011;49206;48.020;21.378;2023-04-24T00:53:26;28.45;;;18.00;;
63112;SDS011;49206;48.020;21.378;2023-04-24T00:54:28;24.73;;;15.95;;
63112;SDS011;49206;48.020;21.378;2023-04-24T00:55:31;26.48;;;15.95;;
63112;SDS011;49206;48.020;21.378;2023-04-24T00:56:34;27.08;;;17.30;;
63112;SDS011;49206;48.020;21.378;2023-04-24T00:57:38;26.73;;;15.50;;
63112;SDS011;49206;48.020;21.378;2023-04-24T00:58:41;28.15;;;16.67;;
63112;SDS011;49206;48.020;21.378;2023-04-24T00:59:44;28.88;;;17.65;;
63112;SDS011;49206;48.020;21.378;2023-04-24T01:00:48;39.35;;;19.95;;
63112;SDS011;49206;48.020;21.378;2023-04-24T01:01:51;30.55;;;18.35;;
63112;SDS011;49206;48.020;21.378;2023-04-24T01:02:53;29.95;;;19.25;;
63112;SDS011;49206;48.020;21.378;2023-04-24T01:03:56;28.38;;;17.98;;
63112;SDS011;49206;48.020;21.378;2023-04-24T01:05:00;28.35;;;17.48;;
63112;SDS011;49206;48.020;21.378;2023-04-24T01:06:03;26.02;;;16.83;;
63112;SDS011;49206;48.020;21.378;2023-04-24T01:07:06;30.05;;;17.63;;
63112;SDS011;49206;48.020;21.378;2023-04-24T01:08:13;29.35;;;18.30;;
63112;SDS011;49206;48.020;21.378;2023-04-24T01:09:16;24.52;;;17.75;;
63112;SDS011;49206;48.020;21.378;2023-04-24T01:10:19;29.95;;;18.20;;
63112;SDS011;49206;48.020;21.378;2023-04-24T01:11:22;25.95;;;16.70;;
63112;SDS011;49206;48.020;21.378;2023-04-24T01:12:25;24.75;;;16.88;;
63112;SDS011;49206;48.020;21.378;2023-04-24T01:13:27;26.48;;;17.92;;
63112;SDS011;49206;48.020;21.378;2023-04-24T01:14:29;29.48;;;17.42;;
63112;SDS011;49206;48.020;21.378;2023-04-24T01:15:32;25.45;;;17.13;;
63112;SDS011;49206;48.020;21.378;2023-04-24T01:16:35;29.73;;;18.20;;
63112;SDS011;49206;48.020;21.378;2023-04-24T01:17:40;26.33;;;16.02;;
63112;SDS011;49206;48.020;21.378;2023-04-24T01:18:43;25.95;;;16.88;;
63112;SDS011;49206;48.020;21.378;2023-04-24T01:19:46;27.50;;;17.30;;
63112;SDS011;49206;48.020;21.378;2023-04-24T01:20:48;27.30;;;18.25;;
63112;SDS011;49206;48.020;21.378;2023-04-24T01:21:53;28.95;;;16.83;;
63112;SDS011;49206;48.020;21.378;2023-04-24T01:22:56;29.10;;;17.30;;
63112;SDS011;49206;48.020;21.378;2023-04-24T01:23:59;27.75;;;16.27;;
63112;SDS011;49206;48.020;21.378;2023-04-24T01:25:01;30.90;;;19.00;;
63112;SDS011;49206;48.020;21.378;2023-04-24T01:26:04;34.45;;;20.60;;
63112;SDS011;49206;48.020;21.378;2023-04-24T01:27:07;37.40;;;23.40;;
63112;SDS011;49206;48.020;21.378;2023-04-24T01:28:10;30.20;;;21.70;;
63112;SDS011;49206;48.020;21.378;2023-04-24T01:29:12;35.30;;;21.35;;
63112;SDS011;49206;48.020;21.378;2023-04-24T01:30:17;30.00;;;20.52;;
63112;SDS011;49206;48.020;21.378;2023-04-24T01:31:19;31.10;;;20.58;;
63112;SDS011;49206;48.020;21.378;2023-04-24T01:32:22;31.17;;;19.75;;
63112;SDS011;49206;48.020;21.378;2023-04-24T01:33:26;29.15;;;18.38;;
63112;SDS011;49206;48.020;21.378;2023-04-24T01:34:28;30.05;;;18.08;;
63112;SDS011;49206;48.020;21.378;2023-04-24T01:35:31;30.20;;;17.85;;
63112;SDS011;49206;48.020;21.378;2023-04-24T01:36:33;25.50;;;17.65;;
63112;SDS011;49206;48.020;21.378;2023-04-24T01:37:37;28.67;;;17.85;;
63112;SDS011;49206;48.020;21.378;2023-04-24T01:38:39;29.33;;;18.27;;
63112;SDS011;49206;48.020;21.378;2023-04-24T01:39:42;26.75;;;17.33;;
63112;SDS011;49206;48.020;21.378;2023-04-24T01:40:46;28.33;;;17.52;;
63112;SDS011;49206;48.020;21.378;2023-04-24T01:41:48;28.33;;;17.08;;
63112;SDS011;49206;48.020;21.378;2023-04-24T01:42:53;24.83;;;16.58;;
63112;SDS011;49206;48.020;21.378;2023-04-24T01:43:57;25.52;;;16.13;;
63112;SDS011;49206;48.020;21.378;2023-04-24T01:45:00;27.38;;;17.95;;
63112;SDS011;49206;48.020;21.378;2023-04-24T01:46:05;24.90;;;17.25;;
63112;SDS011;49206;48.020;21.378;2023-04-24T01:47:10;29.77;;;19.08;;
63112;SDS011;49206;48.020;21.378;2023-04-24T01:48:13;27.20;;;17.08;;
63112;SDS011;49206;48.020;21.378;2023-04-24T01:49:15;22.63;;;15.60;;
63112;SDS011;49206;48.020;21.378;2023-04-24T01:50:19;25.13;;;16.48;;
63112;SDS011;49206;48.020;21.378;2023-04-24T01:51:22;28.77;;;16.80;;
63112;SDS011;49206;48.020;21.378;2023-04-24T01:52:24;27.15;;;17.38;;
63112;SDS011;49206;48.020;21.378;2023-04-24T01:53:28;30.25;;;16.75;;
63112;SDS011;49206;48.020;21.378;2023-04-24T01:54:30;27.10;;;16.63;;
63112;SDS011;49206;48.020;21.378;2023-04-24T01:55:32;27.85;;;17.80;;
63112;SDS011;49206;48.020;21.378;2023-04-24T01:56:35;29.33;;;17.48;;
63112;SDS011;49206;48.020;21.378;2023-04-24T01:57:39;25.42;;;15.95;;
63112;SDS011;49206;48.020;21.378;2023-04-24T01:58:42;26.60;;;17.83;;
63112;SDS011;49206;48.020;21.378;2023-04-24T01:59:45;29.08;;;17.60;;
63112;SDS011;49206;48.020;21.378;2023-04-24T02:00:49;26.02;;;18.25;;
63112;SDS011;49206;48.020;21.378;2023-04-24T02:01:51;28.00;;;17.55;;
63112;SDS011;49206;48.020;21.378;2023-04-24T02:02:54;27.75;;;17.88;;
63112;SDS011;49206;48.020;21.378;2023-04-24T02:03:56;27.48;;;18.40;;
63112;SDS011;49206;48.020;21.378;2023-04-24T02:04:59;25.20;;;17.02;;
63112;SDS011;49206;48.020;21.378;2023-04-24T02:06:01;29.80;;;18.25;;
63112;SDS011;49206;48.020;21.378;2023-04-24T02:07:05;28.73;;;18.33;;
63112;SDS011;49206;48.020;21.378;2023-04-24T02:08:07;30.10;;;19.13;;
63112;SDS011;49206;48.020;21.378;2023-04-24T02:09:11;28.45;;;18.08;;
63112;SDS011;49206;48.020;21.378;2023-04-24T02:10:14;25.98;;;17.90;;
63112;SDS011;49206;48.020;21.378;2023-04-24T02:11:17;29.75;;;17.67;;
63112;SDS011;49206;48.020;21.378;2023-04-24T02:12:19;27.20;;;18.85;;
63112;SDS011;49206;48.020;21.378;2023-04-24T02:13:21;26.50;;;17.83;;
63112;SDS011;49206;48.020;21.378;2023-04-24T02:14:24;31.50;;;19.50;;
63112;SDS011;49206;48.020;21.378;2023-04-24T02:15:27;29.60;;;18.75;;
63112;SDS011;49206;48.020;21.378;2023-04-24T02:16:30;26.98;;;17.80;;
63112;SDS011;49206;48.020;21.378;2023-04-24T02:17:35;29.15;;;18.38;;
63112;SDS011;49206;48.020;21.378;2023-04-24T02:18:38;30.60;;;18.30;;
63112;SDS011;49206;48.020;21.378;2023-04-24T02:19:40;28.63;;;18.58;;
63112;SDS011;49206;48.020;21.378;2023-04-24T02:20:44;30.08;;;18.63;;
63112;SDS011;49206;48.020;21.378;2023-04-24T02:21:48;29.67;;;18.88;;
63112;SDS011;49206;48.020;21.378;2023-04-24T02:22:50;31.48;;;19.55;;
63112;SDS011;49206;48.020;21.378;2023-04-24T02:23:53;32.50;;;20.67;;
63112;SDS011;49206;48.020;21.378;2023-04-24T02:24:56;30.05;;;19.88;;
63112;SDS011;49206;48.020;21.378;2023-04-24T02:25:58;32.15;;;19.77;;
63112;SDS011;49206;48.020;21.378;2023-04-24T02:27:01;27.23;;;19.17;;
63112;SDS011;49206;48.020;21.378;2023-04-24T02:28:04;34.50;;;22.90;;
63112;SDS011;49206;48.020;21.378;2023-04-24T02:29:08;34.85;;;22.48;;
63112;SDS011;49206;48.020;21.378;2023-04-24T02:30:10;35.50;;;21.55;;
63112;SDS011;49206;48.020;21.378;2023-04-24T02:31:13;32.05;;;21.80;;
63112;SDS011;49206;48.020;21.378;2023-04-24T02:32:16;36.97;;;24.17;;
63112;SDS011;49206;48.020;21.378;2023-04-24T02:33:18;34.53;;;21.40;;
63112;SDS011;49206;48.020;21.378;2023-04-24T02:34:21;41.25;;;25.60;;
63112;SDS011;49206;48.020;21.378;2023-04-24T02:35:23;35.65;;;23.45;;
63112;SDS011;49206;48.020;21.378;2023-04-24T02:36:26;36.13;;;22.85;;
63112;SDS011;49206;48.020;21.378;2023-04-24T02:37:28;38.00;;;23.38;;
63112;SDS011;49206;48.020;21.378;2023-04-24T02:38:31;38.78;;;24.58;;
63112;SDS011;49206;48.020;21.378;2023-04-24T02:39:34;35.75;;;25.27;;
63112;SDS011;49206;48.020;21.378;2023-04-24T02:40:37;33.83;;;24.70;;
63112;SDS011;49206;48.020;21.378;2023-04-24T02:41:39;38.40;;;25.40;;
63112;SDS011;49206;48.020;21.378;2023-04-24T02:42:42;38.15;;;24.67;;
63112;SDS011;49206;48.020;21.378;2023-04-24T02:43:45;40.20;;;23.80;;
63112;SDS011;49206;48.020;21.378;2023-04-24T02:44:47;33.95;;;24.73;;
63112;SDS011;49206;48.020;21.378;2023-04-24T02:45:50;35.92;;;24.23;;
63112;SDS011;49206;48.020;21.378;2023-04-24T02:46:52;38.72;;;25.00;;
63112;SDS011;49206;48.020;21.378;2023-04-24T02:47:55;38.03;;;25.85;;
63112;SDS011;49206;48.020;21.378;2023-04-24T02:48:57;40.60;;;26.17;;
63112;SDS011;49206;48.020;21.378;2023-04-24T02:49:59;39.17;;;25.48;;
63112;SDS011;49206;48.020;21.378;2023-04-24T02:51:03;38.42;;;24.95;;
63112;SDS011;49206;48.020;21.378;2023-04-24T02:52:05;38.30;;;25.33;;
63112;SDS011;49206;48.020;21.378;2023-04-24T02:53:08;36.85;;;23.40;;
63112;SDS011;49206;48.020;21.378;2023-04-24T02:54:10;36.13;;;23.42;;
63112;SDS011;49206;48.020;21.378;2023-04-24T02:55:12;36.58;;;24.20;;
63112;SDS011;49206;48.020;21.378;2023-04-24T02:56:15;37.25;;;24.15;;
63112;SDS011;49206;48.020;21.378;2023-04-24T02:57:17;36.03;;;24.38;;
63112;SDS011;49206;48.020;21.378;2023-04-24T02:58:21;38.78;;;27.50;;
63112;SDS011;49206;48.020;21.378;2023-04-24T02:59:24;39.30;;;25.30;;
63112;SDS011;49206;48.020;21.378;2023-04-24T03:00:29;41.72;;;26.70;;
63112;SDS011;49206;48.020;21.378;2023-04-24T03:01:32;40.60;;;28.50;;
63112;SDS011;49206;48.020;21.378;2023-04-24T03:02:34;42.75;;;30.13;;
63112;SDS011;49206;48.020;21.378;2023-04-24T03:03:37;46.05;;;32.05;;
63112;SDS011;49206;48.020;21.378;2023-04-24T03:04:40;51.80;;;32.95;;
63112;SDS011;49206;48.020;21.378;2023-04-24T03:05:44;42.63;;;29.08;;
63112;SDS011;49206;48.020;21.378;2023-04-24T03:06:47;39.03;;;26.98;;
63112;SDS011;49206;48.020;21.378;2023-04-24T03:07:50;38.58;;;26.35;;
63112;SDS011;49206;48.020;21.378;2023-04-24T03:08:55;39.90;;;26.67;;
63112;SDS011;49206;48.020;21.378;2023-04-24T03:09:58;40.45;;;24.80;;
63112;SDS011;49206;48.020;21.378;2023-04-24T03:11:01;40.42;;;26.17;;
63112;SDS011;49206;48.020;21.378;2023-04-24T03:12:03;40.90;;;27.65;;
63112;SDS011;49206;48.020;21.378;2023-04-24T03:13:06;42.72;;;30.95;;
63112;SDS011;49206;48.020;21.378;2023-04-24T03:14:08;42.45;;;27.83;;
63112;SDS011;49206;48.020;21.378;2023-04-24T03:15:12;39.20;;;26.10;;
63112;SDS011;49206;48.020;21.378;2023-04-24T03:16:14;38.47;;;26.05;;
63112;SDS011;49206;48.020;21.378;2023-04-24T03:17:17;40.10;;;25.80;;
63112;SDS011;49206;48.020;21.378;2023-04-24T03:18:19;37.78;;;24.42;;
63112;SDS011;49206;48.020;21.378;2023-04-24T03:19:24;35.90;;;22.17;;
63112;SDS011;49206;48.020;21.378;2023-04-24T03:20:36;31.65;;;21.88;;
63112;SDS011;49206;48.020;21.378;2023-04-24T03:21:39;31.88;;;20.25;;
63112;SDS011;49206;48.020;21.378;2023-04-24T03:22:45;34.00;;;19.45;;
63112;SDS011;49206;48.020;21.378;2023-04-24T03:23:47;34.90;;;18.70;;
63112;SDS011;49206;48.020;21.378;2023-04-24T03:24:50;28.98;;;16.17;;
63112;SDS011;49206;48.020;21.378;2023-04-24T03:25:53;24.05;;;15.48;;
63112;SDS011;49206;48.020;21.378;2023-04-24T03:26:56;24.95;;;14.98;;
63112;SDS011;49206;48.020;21.378;2023-04-24T03:28:25;24.88;;;14.07;;
63112;SDS011;49206;48.020;21.378;2023-04-24T03:29:37;26.38;;;14.32;;
63112;SDS011;49206;48.020;21.378;2023-04-24T03:30:40;23.48;;;13.40;;
63112;SDS011;49206;48.020;21.378;2023-04-24T03:31:43;22.98;;;14.02;;
63112;SDS011;49206;48.020;21.378;2023-04-24T03:32:45;25.88;;;13.18;;
63112;SDS011;49206;48.020;21.378;2023-04-24T03:33:52;20.67;;;12.32;;
63112;SDS011;49206;48.020;21.378;2023-04-24T03:34:55;20.52;;;12.30;;
63112;SDS011;49206;48.020;21.378;2023-04-24T03:35:57;21.63;;;12.85;;
63112;SDS011;49206;48.020;21.378;2023-04-24T03:37:01;17.58;;;12.48;;
63112;SDS011;49206;48.020;21.378;2023-04-24T03:38:04;18.20;;;11.80;;
63112;SDS011;49206;48.020;21.378;2023-04-24T03:39:25;18.42;;;11.65;;
63112;SDS011;49206;48.020;21.378;2023-04-24T03:40:30;17.85;;;12.55;;
63112;SDS011;49206;48.020;21.378;2023-04-24T03:41:36;19.33;;;12.15;;
63112;SDS011;49206;48.020;21.378;2023-04-24T03:42:45;17.27;;;11.48;;
63112;SDS011;49206;48.020;21.378;2023-04-24T03:43:47;18.85;;;13.10;;
63112;SDS011;49206;48.020;21.378;2023-04-24T03:44:50;16.35;;;11.35;;
63112;SDS011;49206;48.020;21.378;2023-04-24T03:45:56;17.05;;;11.30;;
63112;SDS011;49206;48.020;21.378;2023-04-24T03:46:59;16.70;;;10.32;;
63112;SDS011;49206;48.020;21.378;2023-04-24T03:48:02;15.35;;;10.32;;
63112;SDS011;49206;48.020;21.378;2023-04-24T03:49:04;17.88;;;10.95;;
63112;SDS011;49206;48.020;21.378;2023-04-24T03:50:11;14.70;;;9.77;;
63112;SDS011;49206;48.020;21.378;2023-04-24T03:51:15;14.50;;;10.30;;
63112;SDS011;49206;48.020;21.378;2023-04-24T03:52:20;14.93;;;11.00;;
63112;SDS011;49206;48.020;21.378;2023-04-24T03:53:23;15.90;;;10.57;;
63112;SDS011;49206;48.020;21.378;2023-04-24T03:54:26;20.58;;;11.90;;
63112;SDS011;49206;48.020;21.378;2023-04-24T03:55:29;15.98;;;10.05;;
63112;SDS011;49206;48.020;21.378;2023-04-24T03:56:31;16.58;;;10.57;;
63112;SDS011;49206;48.020;21.378;2023-04-24T03:57:34;17.55;;;10.05;;
63112;SDS011;49206;48.020;21.378;2023-04-24T03:58:45;13.30;;;9.57;;
63112;SDS011;49206;48.020;21.378;2023-04-24T03:59:48;15.55;;;10.75;;
63112;SDS011;49206;48.020;21.378;2023-04-24T04:00:52;19.88;;;10.40;;
63112;SDS011;49206;48.020;21.378;2023-04-24T04:02:18;17.20;;;10.00;;
63112;SDS011;49206;48.020;21.378;2023-04-24T04:03:39;15.50;;;10.00;;
63112;SDS011;49206;48.020;21.378;2023-04-24T04:04:42;14.93;;;9.95;;
63112;SDS011;49206;48.020;21.378;2023-04-24T04:05:44;20.70;;;11.77;;
63112;SDS011;49206;48.020;21.378;2023-04-24T04:06:47;15.73;;;9.70;;
63112;SDS011;49206;48.020;21.378;2023-04-24T04:07:50;15.90;;;10.63;;
63112;SDS011;49206;48.020;21.378;2023-04-24T04:08:52;14.93;;;9.88;;
63112;SDS011;49206;48.020;21.378;2023-04-24T04:09:54;14.18;;;10.52;;
63112;SDS011;49206;48.020;21.378;2023-04-24T04:10:57;16.00;;;10.35;;
63112;SDS011;49206;48.020;21.378;2023-04-24T04:12:00;15.10;;;10.43;;
63112;SDS011;49206;48.020;21.378;2023-04-24T04:13:03;20.25;;;10.48;;
63112;SDS011;49206;48.020;21.378;2023-04-24T04:14:06;15.45;;;10.07;;
63112;SDS011;49206;48.020;21.378;2023-04-24T04:15:13;16.35;;;10.20;;
63112;SDS011;49206;48.020;21.378;2023-04-24T04:16:18;18.58;;;10.23;;
63112;SDS011;49206;48.020;21.378;2023-04-24T04:17:25;23.27;;;10.95;;
63112;SDS011;49206;48.020;21.378;2023-04-24T04:18:28;20.40;;;10.77;;
63112;SDS011;49206;48.020;21.378;2023-04-24T04:19:31;18.98;;;11.18;;
63112;SDS011;49206;48.020;21.378;2023-04-24T04:20:33;16.65;;;10.38;;
63112;SDS011;49206;48.020;21.378;2023-04-24T04:21:36;16.17;;;10.43;;
63112;SDS011;49206;48.020;21.378;2023-04-24T04:22:53;16.10;;;10.80;;
63112;SDS011;49206;48.020;21.378;2023-04-24T04:24:05;15.68;;;10.27;;
63112;SDS011;49206;48.020;21.378;2023-04-24T04:25:13;15.75;;;10.32;;
63112;SDS011;49206;48.020;21.378;2023-04-24T04:26:16;16.10;;;10.40;;
63112;SDS011;49206;48.020;21.378;2023-04-24T04:27:34;14.98;;;10.43;;
63112;SDS011;49206;48.020;21.378;2023-04-24T04:28:42;15.73;;;11.00;;
63112;SDS011;49206;48.020;21.378;2023-04-24T04:29:47;16.00;;;10.45;;
63112;SDS011;49206;48.020;21.378;2023-04-24T04:30:50;14.73;;;9.68;;
63112;SDS011;49206;48.020;21.378;2023-04-24T04:31:57;15.00;;;10.60;;
63112;SDS011;49206;48.020;21.378;2023-04-24T04:33:01;14.73;;;10.05;;
63112;SDS011;49206;48.020;21.378;2023-04-24T04:34:31;16.70;;;10.95;;
63112;SDS011;49206;48.020;21.378;2023-04-24T04:35:35;16.90;;;10.27;;
63112;SDS011;49206;48.020;21.378;2023-04-24T04:36:38;15.57;;;11.43;;
63112;SDS011;49206;48.020;21.378;2023-04-24T04:38:02;16.42;;;10.07;;
63112;SDS011;49206;48.020;21.378;2023-04-24T04:39:21;16.42;;;10.20;;
63112;SDS011;49206;48.020;21.378;2023-04-24T04:40:37;16.40;;;10.60;;
63112;SDS011;49206;48.020;21.378;2023-04-24T04:41:40;13.90;;;9.60;;
63112;SDS011;49206;48.020;21.378;2023-04-24T04:42:45;17.08;;;11.38;;
63112;SDS011;49206;48.020;21.378;2023-04-24T04:43:48;16.40;;;10.95;;
63112;SDS011;49206;48.020;21.378;2023-04-24T04:44:51;15.13;;;10.43;;
63112;SDS011;49206;48.020;21.378;2023-04-24T04:45:59;15.05;;;10.93;;
63112;SDS011;49206;48.020;21.378;2023-04-24T04:47:13;16.05;;;10.63;;
63112;SDS011;49206;48.020;21.378;2023-04-24T04:48:16;14.82;;;10.52;;
63112;SDS011;49206;48.020;21.378;2023-04-24T04:49:20;22.45;;;11.52;;
63112;SDS011;49206;48.020;21.378;2023-04-24T04:50:24;20.23;;;10.85;;
63112;SDS011;49206;48.020;21.378;2023-04-24T04:51:34;15.00;;;10.48;;
63112;SDS011;49206;48.020;21.378;2023-04-24T04:52:37;14.25;;;10.45;;
63112;SDS011;49206;48.020;21.378;2023-04-24T04:53:49;13.65;;;9.82;;
63112;SDS011;49206;48.020;21.378;2023-04-24T04:54:52;14.80;;;10.13;;
63112;SDS011;49206;48.020;21.378;2023-04-24T04:55:57;14.45;;;10.43;;
63112;SDS011;49206;48.020;21.378;2023-04-24T04:57:10;16.95;;;10.90;;
63112;SDS011;49206;48.020;21.378;2023-04-24T04:58:13;15.20;;;10.13;;
63112;SDS011;49206;48.020;21.378;2023-04-24T04:59:15;15.00;;;10.27;;
63112;SDS011;49206;48.020;21.378;2023-04-24T05:00:18;11.80;;;9.98;;
63112;SDS011;49206;48.020;21.378;2023-04-24T05:01:25;20.08;;;10.70;;
63112;SDS011;49206;48.020;21.378;2023-04-24T05:02:31;17.13;;;11.57;;
63112;SDS011;49206;48.020;21.378;2023-04-24T05:03:33;16.30;;;11.10;;
63112;SDS011;49206;48.020;21.378;2023-04-24T05:04:40;17.42;;;10.82;;
63112;SDS011;49206;48.020;21.378;2023-04-24T05:05:49;14.23;;;9.98;;
63112;SDS011;49206;48.020;21.378;2023-04-24T05:06:52;15.82;;;10.38;;
63112;SDS011;49206;48.020;21.378;2023-04-24T05:07:57;15.93;;;10.52;;
63112;SDS011;49206;48.020;21.378;2023-04-24T05:08:59;16.00;;;10.10;;
63112;SDS011;49206;48.020;21.378;2023-04-24T05:10:25;14.05;;;9.80;;
63112;SDS011;49206;48.020;21.378;2023-04-24T05:11:29;14.50;;;10.15;;
63112;SDS011;49206;48.020;21.378;2023-04-24T05:12:33;21.48;;;11.18;;
63112;SDS011;49206;48.020;21.378;2023-04-24T05:13:37;15.07;;;9.48;;
63112;SDS011;49206;48.020;21.378;2023-04-24T05:14:51;15.13;;;10.68;;
63112;SDS011;49206;48.020;21.378;2023-04-24T05:15:53;14.88;;;11.13;;
63112;SDS011;49206;48.020;21.378;2023-04-24T05:16:57;17.02;;;10.43;;
63112;SDS011;49206;48.020;21.378;2023-04-24T05:18:04;13.93;;;10.50;;
63112;SDS011;49206;48.020;21.378;2023-04-24T05:19:13;13.40;;;9.38;;
63112;SDS011;49206;48.020;21.378;2023-04-24T05:20:16;18.27;;;10.10;;
63112;SDS011;49206;48.020;21.378;2023-04-24T05:21:19;17.35;;;10.40;;
63112;SDS011;49206;48.020;21.378;2023-04-24T05:22:25;14.75;;;10.50;;
63112;SDS011;49206;48.020;21.378;2023-04-24T05:23:28;13.98;;;9.27;;
63112;SDS011;49206;48.020;21.378;2023-04-24T05:24:31;14.40;;;9.82;;
63112;SDS011;49206;48.020;21.378;2023-04-24T05:25:49;13.02;;;9.32;;
63112;SDS011;49206;48.020;21.378;2023-04-24T05:26:52;15.02;;;9.55;;
63112;SDS011;49206;48.020;21.378;2023-04-24T05:27:59;14.88;;;9.90;;
63112;SDS011;49206;48.020;21.378;2023-04-24T05:29:02;23.17;;;14.48;;
63112;SDS011;49206;48.020;21.378;2023-04-24T05:30:05;16.45;;;10.10;;
63112;SDS011;49206;48.020;21.378;2023-04-24T05:31:14;14.25;;;9.88;;
63112;SDS011;49206;48.020;21.378;2023-04-24T05:32:16;16.48;;;10.05;;
63112;SDS011;49206;48.020;21.378;2023-04-24T05:33:19;13.25;;;9.13;;
63112;SDS011;49206;48.020;21.378;2023-04-24T05:34:22;16.17;;;9.77;;
63112;SDS011;49206;48.020;21.378;2023-04-24T05:35:28;16.67;;;9.68;;
63112;SDS011;49206;48.020;21.378;2023-04-24T05:36:33;14.73;;;10.05;;
63112;SDS011;49206;48.020;21.378;2023-04-24T05:37:35;15.35;;;10.68;;
63112;SDS011;49206;48.020;21.378;2023-04-24T05:38:40;17.52;;;11.02;;
63112;SDS011;49206;48.020;21.378;2023-04-24T05:39:46;16.02;;;11.20;;
63112;SDS011;49206;48.020;21.378;2023-04-24T05:40:49;14.85;;;10.70;;
63112;SDS011;49206;48.020;21.378;2023-04-24T05:41:55;15.43;;;10.20;;
63112;SDS011;49206;48.020;21.378;2023-04-24T05:43:00;14.95;;;10.43;;
63112;SDS011;49206;48.020;21.378;2023-04-24T05:44:02;20.67;;;11.13;;
63112;SDS011;49206;48.020;21.378;2023-04-24T05:45:05;15.32;;;9.38;;
63112;SDS011;49206;48.020;21.378;2023-04-24T05:46:09;14.88;;;9.85;;
63112;SDS011;49206;48.020;21.378;2023-04-24T05:47:13;17.48;;;9.85;;
63112;SDS011;49206;48.020;21.378;2023-04-24T05:48:16;20.27;;;11.25;;
63112;SDS011;49206;48.020;21.378;2023-04-24T05:49:31;17.05;;;9.90;;
63112;SDS011;49206;48.020;21.378;2023-04-24T05:50:41;13.00;;;9.18;;
63112;SDS011;49206;48.020;21.378;2023-04-24T05:51:45;18.73;;;9.82;;
63112;SDS011;49206;48.020;21.378;2023-04-24T05:52:51;18.42;;;9.90;;
63112;SDS011;49206;48.020;21.378;2023-04-24T05:54:01;17.67;;;9.48;;
63112;SDS011;49206;48.020;21.378;2023-04-24T05:55:05;13.90;;;10.63;;
63112;SDS011;49206;48.020;21.378;2023-04-24T05:56:11;14.23;;;9.52;;
63112;SDS011;49206;48.020;21.378;2023-04-24T05:57:14;16.30;;;9.70;;
63112;SDS011;49206;48.020;21.378;2023-04-24T05:58:26;12.98;;;9.18;;
63112;SDS011;49206;48.020;21.378;2023-04-24T05:59:29;14.57;;;9.82;;
63112;SDS011;49206;48.020;21.378;2023-04-24T06:00:32;15.00;;;9.35;;
63112;SDS011;49206;48.020;21.378;2023-04-24T06:01:39;12.20;;;9.45;;
63112;SDS011;49206;48.020;21.378;2023-04-24T06:02:50;15.93;;;9.73;;
63112;SDS011;49206;48.020;21.378;2023-04-24T06:03:56;13.10;;;9.27;;
63112;SDS011;49206;48.020;21.378;2023-04-24T06:06:02;11.65;;;9.10;;
63112;SDS011;49206;48.020;21.378;2023-04-24T06:07:05;13.05;;;9.30;;
63112;SDS011;49206;48.020;21.378;2023-04-24T06:08:09;15.50;;;10.45;;
63112;SDS011;49206;48.020;21.378;2023-04-24T06:09:13;14.52;;;9.15;;
63112;SDS011;49206;48.020;21.378;2023-04-24T06:10:16;14.35;;;9.57;;
63112;SDS011;49206;48.020;21.378;2023-04-24T06:11:21;14.30;;;8.55;;
63112;SDS011;49206;48.020;21.378;2023-04-24T06:12:25;15.77;;;8.48;;
63112;SDS011;49206;48.020;21.378;2023-04-24T06:13:35;11.68;;;8.73;;